Time;durP1;ratioP1;P1;durP2;ratioP2;P2;SDS_P1;SDS_P2;PMS_P1;PMS_P2;Temp;Humidity;BMP_temperature;BMP_pressure;BME280_temperature;BME280_humidity;BME280_pressure;Samples;Min_cycle;Max_cycle;Signal;HPM_P1;HPM_P2
2023/04/29 00:00:57;;;;;;;48.50;13.77;;;;;;;9.36;64.30;96853.75;6279664;28;19916;-74
2023/04/29 00:04:04;;;;;;;53.83;15.25;;;;;;;9.25;64.42;96857.00;6279528;28;20572;-74
2023/04/29 00:07:08;;;;;;;56.08;15.57;;;;;;;9.22;64.46;96859.81;6279766;28;20040;-74
2023/04/29 00:10:13;;;;;;;34.60;12.65;;;;;;;9.20;64.76;96859.09;6297499;28;20056;-75
2023/04/29 00:13:17;;;;;;;36.70;12.63;;;;;;;9.14;64.55;96864.66;6296724;28;20047;-75
2023/04/29 00:16:22;;;;;;;30.35;10.93;;;;;;;9.13;64.65;96868.25;6297175;28;20128;-75
2023/04/29 00:19:24;;;;;;;;;;;;;;;9.11;64.37;96864.84;6297301;28;20041;-73
2023/04/29 00:22:27;;;;;;;;;;;;;;;8.96;63.94;96871.84;6296959;28;19931;-74
2023/04/29 00:25:31;;;;;;;;;;;;;;;8.91;64.31;96866.88;6297625;28;19927;-74
2023/04/29 00:28:34;;;;;;;;;;;;;;;8.88;63.97;96869.66;6297085;28;20400;-74
2023/04/29 00:31:37;;;;;;;;;;;;;;;8.94;64.57;96861.44;6296790;28;19927;-74
2023/04/29 00:34:41;;;;;;;;;;;;;;;8.92;63.93;96865.09;6279357;28;20022;-74
2023/04/29 00:37:45;;;;;;;;;;;;;;;8.83;64.30;96866.50;6279235;28;19927;-75
2023/04/29 00:40:49;;;;;;;;;;;;;;;8.80;64.57;96853.53;6296776;28;19920;-76
2023/04/29 00:43:52;;;;;;;;;;;;;;;8.75;64.14;96863.47;6297181;28;20014;-74
2023/04/29 00:46:58;;;;;;;;;;;;;;;8.73;64.29;96867.94;6296681;28;20023;-75
2023/04/29 00:50:00;;;;;;;;;;;;;;;8.80;64.35;96858.78;6261913;28;19999;-74
2023/04/29 00:53:04;;;;;;;;;;;;;;;8.70;64.03;96873.38;6278490;28;19920;-75
2023/04/29 00:56:09;;;;;;;;;;;;;;;8.70;64.19;96865.50;6296360;28;19965;-74
2023/04/29 00:59:14;;;;;;;;;;;;;;;8.74;63.82;96875.72;6296465;28;19927;-74
2023/04/29 01:02:18;;;;;;;;;;;;;;;8.83;64.08;96865.63;6279038;28;19927;-74
2023/04/29 01:05:22;;;;;;;;;;;;;;;8.84;63.65;96872.56;6296429;28;20059;-74
2023/04/29 01:08:41;;;;;;;;;;;;;;;8.85;64.11;96872.47;6295801;28;19920;-75
2023/04/29 01:12:05;;;;;;;;;;;;;;;8.89;63.76;96878.38;6261633;28;19920;-74
2023/04/29 01:15:10;;;;;;;;;;;;;;;8.88;63.50;96881.94;6277973;28;19946;-74
2023/04/29 01:18:27;;;;;;;;;;;;;;;8.97;63.57;96887.53;6278329;28;19973;-74
2023/04/29 01:21:30;;;;;;;;;;;;;;;8.97;63.35;96887.53;6277445;28;19946;-74
2023/04/29 01:24:34;;;;;;;;;;;;;;;9.06;63.37;96887.91;6277963;28;20431;-74
2023/04/29 01:27:45;;;;;;;;;;;;;;;9.05;63.71;96891.47;6295624;28;19920;-74
2023/04/29 01:30:57;;;;;;;;;;;;;;;9.10;63.77;96895.50;6295440;28;20009;-74
2023/04/29 01:34:19;;;;;;;;;;;;;;;9.10;63.33;96899.91;6295512;28;19926;-74
2023/04/29 01:37:27;;;;;;;;;;;;;;;9.11;63.17;96902.44;6295425;28;19927;-74
2023/04/29 01:40:37;;;;;;;;;;;;;;;9.16;63.36;96910.06;6295401;28;20375;-73
2023/04/29 01:43:42;;;;;;;;;;;;;;;9.16;63.05;96915.31;6260898;28;19924;-74
2023/04/29 01:46:49;;;;;;;;;;;;;;;9.24;62.80;96923.59;6276776;28;20304;-74
2023/04/29 01:49:53;;;;;;;;;;;;;;;9.35;62.84;96920.34;6295273;28;19920;-74
2023/04/29 01:52:57;;;;;;;;;;;;;;;9.32;62.50;96920.50;6295350;28;19920;-74
2023/04/29 01:56:00;;;;;;;;;;;;;;;9.39;62.39;96929.72;6260511;28;19942;-75
2023/04/29 01:59:03;;;;;;;;;;;;;;;9.40;62.17;96929.63;6295197;28;20069;-74
2023/04/29 02:02:06;;;;;;;;;;;;;;;9.55;62.00;96930.50;6295316;28;20111;-74
2023/04/29 02:05:10;;;;;;;;;;;;;;;9.55;61.86;96930.50;6277100;28;19965;-74
2023/04/29 02:08:13;;;;;;;;;;;;;;;9.57;61.88;96939.13;6294967;28;20027;-74
2023/04/29 02:11:17;;;;;;;;;;;;;;;9.56;61.92;96933.97;6294730;28;20405;-75
2023/04/29 02:14:20;;;;;;;;;;;;;;;9.63;62.06;96943.19;6276503;28;19920;-73
2023/04/29 02:17:24;;;;;;;;;;;;;;;9.76;61.54;96940.63;6295280;28;20083;-75
2023/04/29 02:20:27;;;;;;;;;;;;;;;9.71;61.50;96938.31;6294932;28;20312;-74
2023/04/29 02:23:30;;;;;;;;;;;;;;;9.79;61.77;96957.06;6294914;28;19943;-75
2023/04/29 02:26:34;;;;;;;;;;;;;;;9.84;61.12;96957.63;6294745;28;20310;-74
2023/04/29 02:29:36;;;;;;;;;;;;;;;9.81;61.19;96954.34;6277166;28;20294;-75
2023/04/29 02:32:40;;;;;;;;;;;;;;;9.93;61.18;96964.09;6277017;28;19920;-75
2023/04/29 02:35:43;;;;;;;;;;;;;;;9.89;60.88;96962.63;6294724;28;19926;-75
2023/04/29 02:38:49;;;;;;;;;;;;;;;9.95;60.97;96959.63;6276487;28;19920;-74
2023/04/29 02:41:57;;;;;;;;;;;;;;;9.97;60.81;96965.63;6294356;28;19920;-74
2023/04/29 02:45:00;;;;;;;;;;;;;;;10.08;60.63;96972.88;6294712;28;19935;-76
2023/04/29 02:48:05;;;;;;;;;;;;;;;10.14;60.33;96972.50;6294377;28;19927;-75
2023/04/29 02:51:08;;;;;;;;;;;;;;;10.20;60.34;96979.16;6294655;28;20023;-75
2023/04/29 02:54:12;;;;;;;;;;;;;;;10.22;60.01;96966.72;6276365;28;19927;-76
2023/04/29 02:57:15;;;;;;;;;;;;;;;10.30;59.90;96978.53;6296480;28;19920;-76
2023/04/29 03:00:16;;;;;;;;;;;;;;;10.42;59.82;96990.06;6281343;28;20011;-75
2023/04/29 03:03:20;;;;;;;;;;;;;;;10.39;59.59;96992.03;6281427;28;20302;-75
2023/04/29 03:06:22;;;;;;;;;;;;;;;10.46;59.56;96982.81;6281110;28;20386;-75
2023/04/29 03:09:26;;;;;;;;;;;;;;;10.56;59.33;96984.78;6299174;28;19989;-74
2023/04/29 03:12:29;;;;;;;;;;;;;;;10.60;59.06;96985.44;6298919;28;19920;-75
2023/04/29 03:15:32;;;;;;;;;;;;;;;10.69;59.05;96974.31;6298807;28;20378;-75
2023/04/29 03:18:36;;;;;;;;;;;;;;;10.78;58.85;96970.25;6298725;28;20015;-75
2023/04/29 03:21:39;;;;;;;;;;;;;;;10.87;58.67;96976.72;6280708;28;19928;-75
2023/04/29 03:24:43;;;;;;;;;;;;;;;11.05;58.31;96975.53;6280293;28;19920;-74
2023/04/29 03:27:46;;;;;;;;;;;;;;;11.10;58.15;96978.72;6298431;28;19927;-73
2023/04/29 03:30:50;;;;;;;;;;;;;;;11.13;58.11;96988.22;6298197;28;20011;-75
2023/04/29 03:33:54;;;;;;;;;;;;;;;11.25;57.82;96990.03;6298216;28;20022;-75
2023/04/29 03:36:57;;;;;;;;;;;;;;;11.38;57.56;96995.31;6279885;28;20289;-74
2023/04/29 03:40:00;;;;;;;;;;;;;;;11.45;57.23;97005.34;6298108;28;20407;-77
2023/04/29 03:43:02;;;;;;;;;;;;;;;11.58;57.11;96994.84;6298479;28;19927;-75
2023/04/29 03:46:04;;;;;;;;;;;;;;;11.66;56.69;97000.47;6280388;28;19924;-74
2023/04/29 03:49:08;;;;;;;;;;;;;;;11.81;56.44;97003.84;6297989;28;19921;-75
2023/04/29 03:52:11;;;;;;;;;;;;;;;11.94;56.07;97001.25;6298112;28;19927;-76
2023/04/29 03:55:15;;;;;;;;;;;;;;;11.97;55.68;97000.19;6297771;28;19944;-75
2023/04/29 03:58:18;;;;;;;;;;;;;;;12.06;55.67;97000.41;6297742;28;19954;-74
2023/04/29 04:01:21;;;;;;;;;;;;;;;12.30;55.01;97002.28;6297572;28;20018;-75
2023/04/29 04:04:25;;;;;;;;;;;;;;;12.40;54.88;96998.06;6297837;28;19920;-74
2023/04/29 04:07:28;;;;;;;;;;;;;;;12.58;54.44;97009.13;6297076;28;20309;-75
2023/04/29 04:10:32;;;;;;;;;;;;;;;12.76;53.91;97004.31;6297300;28;20400;-75
2023/04/29 04:13:36;;;;;;;;;;;;;;;12.86;53.84;97005.38;6297076;28;19920;-75
2023/04/29 04:16:40;;;;;;;;;;;;;;;13.09;52.78;97013.41;6297255;28;19920;-75
2023/04/29 04:19:43;;;;;;;;;;;;;;;13.15;52.13;97011.16;6279470;28;19916;-75
2023/04/29 04:22:47;;;;;;;;;;;;;;;13.20;52.11;97013.47;6297180;28;19920;-75
2023/04/29 04:25:52;;;;;;;;;;;;;;;13.34;51.92;97015.97;6278683;28;20364;-74
2023/04/29 04:28:56;;;;;;;;;;;;;;;13.56;51.56;97017.03;6296770;28;20293;-74
2023/04/29 04:31:59;;;;;;;;;;;;;;;13.86;51.02;97017.38;6278551;28;19927;-74
2023/04/29 04:35:03;;;;;;;;;;;;;;;13.96;50.33;97024.63;6278711;28;20015;-75
2023/04/29 04:38:08;;;;;;;;;;;;;;;14.08;50.45;97031.63;6296611;28;20014;-75
2023/04/29 04:41:12;;;;;;;;;;;;;;;14.24;49.93;97025.97;6278593;28;20338;-74
2023/04/29 04:44:16;;;;;;;;;;;;;;;14.35;49.62;97029.50;6296701;28;19966;-76
2023/04/29 04:47:18;;;;;;;;;;;;;;;14.57;49.35;97031.31;6278048;28;19920;-74
2023/04/29 04:50:22;;;;;;;;;;;;;;;16.39;47.01;97036.75;6296635;28;20016;-75
2023/04/29 04:53:25;;;;;;;;;;;;;;;21.03;39.89;97046.97;6278828;28;20007;-74
2023/04/29 04:56:29;;;;;;;;;;;;;;;25.51;34.13;97043.56;6296388;28;20448;-75
2023/04/29 04:59:32;;;;;;;;;;;;;;;29.07;30.07;97062.03;6296211;28;19920;-74
2023/04/29 05:02:34;;;;;;;;;;;;;;;31.94;28.20;97061.53;6278408;28;19920;-74
2023/04/29 05:05:38;;;;;;;;;;;;;;;33.96;24.66;97057.53;6296063;28;19927;-74
2023/04/29 05:08:42;;;;;;;;;;;;;;;35.60;23.66;97065.66;6296023;28;20026;-74
2023/04/29 05:11:45;;;;;;;;;;;;;;;37.14;21.13;97056.16;6278096;28;19928;-74
2023/04/29 05:14:51;;;;;;;;;;;;;;;38.14;19.88;97064.31;6277161;28;20018;-74
2023/04/29 05:17:56;;;;;;;;;;;;;;;39.14;18.14;97066.56;6295837;28;19926;-74
2023/04/29 05:21:00;;;;;;;;;;;;;;;40.15;16.87;97064.56;6294990;28;19916;-74
2023/04/29 05:24:02;;;;;;;;;;;;;;;40.36;17.26;97069.94;6277738;28;20313;-74
2023/04/29 05:27:05;;;;;;;;;;;;;;;41.12;16.43;97065.75;6295901;28;20007;-74
2023/04/29 05:30:10;;;;;;;;;;;;;;;41.36;15.08;97064.94;6295757;28;19920;-74
2023/04/29 05:33:13;;;;;;;;;;;;;;;42.02;12.33;97066.94;6277967;28;20416;-74
2023/04/29 05:36:16;;;;;;;;;;;;;;;42.46;13.89;97064.94;6277948;28;19963;-74
2023/04/29 05:39:19;;;;;;;;;;;;;;;42.96;12.56;97056.94;6295295;28;20344;-74
2023/04/29 05:42:23;;;;;;;;;;;;;;;43.54;13.60;97061.91;6295740;28;19924;-74
2023/04/29 05:45:26;;;;;;;;;;;;;;;44.23;12.48;97070.19;6277568;28;19916;-73
2023/04/29 05:48:29;;;;;;;;;;;;;;;45.34;12.75;97062.16;6295308;28;19920;-74
2023/04/29 05:51:32;;;;;;;;;;;;;;;46.27;12.13;97072.25;6277503;28;20414;-75
2023/04/29 05:54:36;;;;;;;;;;;;;;;47.24;9.85;97066.28;6295077;28;19920;-73
2023/04/29 05:57:40;;;;;;;;;;;;;;;47.71;11.32;97073.00;6294976;28;19920;-74
2023/04/29 06:00:42;;;;;;;;;;;;;;;48.06;10.34;97080.00;6277200;28;19920;-76
2023/04/29 06:03:46;;;;;;;;;;;;;;;48.42;9.00;97075.00;6295040;28;20015;-74
2023/04/29 06:06:49;;;;;;;;;;;;;;;48.45;10.63;97075.13;6295295;28;20022;-74
2023/04/29 06:09:52;;;;;;;;;;;;;;;49.02;11.29;97086.81;6295014;28;19926;-74
2023/04/29 06:12:55;;;;;;;;;;;;;;;49.44;9.40;97081.91;6295503;28;19927;-74
2023/04/29 06:15:58;;;;;;;;;;;;;;;49.40;10.10;97075.38;6295213;28;19920;-74
2023/04/29 06:19:01;;;;;;;;;;;;;;;49.75;9.40;97081.34;6295283;28;19920;-74
2023/04/29 06:22:05;;;;;;;;;;;;;;;50.08;9.42;97083.19;6295375;28;19920;-74
2023/04/29 06:25:08;;;;;;;;;;;;;;;50.84;7.68;97080.66;6295642;28;19916;-75
2023/04/29 06:28:10;;;;;;;;;;;;;;;50.57;8.05;97074.69;6276939;28;19920;-74
2023/04/29 06:31:13;;;;;;;;;;;;;;;50.54;8.04;97079.03;6279465;28;19921;-75
2023/04/29 06:34:16;;;;;;;;;;;;;;;50.98;7.55;97083.88;6282048;28;19916;-75
2023/04/29 06:37:19;;;;;;;;;;;;;;;50.90;7.54;97073.63;6300000;28;19927;-75
2023/04/29 06:40:22;;;;;;;;;;;;;;;50.37;7.61;97081.28;6281365;28;20007;-74
2023/04/29 06:43:28;;;;;;;;;;;;;;;51.03;6.77;97078.03;6281874;28;19920;-74
2023/04/29 06:46:31;;;;;;;;;;;;;;;51.46;6.74;97083.94;6265251;28;20293;-73
2023/04/29 06:49:34;;;;;;;;;;;;;;;51.15;6.86;97079.94;6299403;28;20463;-74
2023/04/29 06:52:37;;;;;;;;;;;;;;;51.12;7.23;97092.66;6299239;28;19924;-75
2023/04/29 06:55:41;;;;;;;;;;;;;;;51.99;7.51;97084.47;6281740;28;20336;-74
2023/04/29 06:58:44;;;;;;;;;;;;;;;52.59;6.28;97093.44;6281703;28;19920;-74
2023/04/29 07:01:47;;;;;;;;;;;;;;;53.18;6.79;97092.22;6281045;28;19985;-75
2023/04/29 07:04:51;;;;;;;;;;;;;;;52.74;6.78;97097.38;6298946;28;19969;-74
2023/04/29 07:07:56;;;;;;;;;;;;;;;50.91;7.88;97078.06;6298723;28;20019;-74
2023/04/29 07:10:58;;;;;;;;;;;;;;;47.94;8.33;97071.56;6281376;28;19927;-75
2023/04/29 07:14:00;;;;;;;;;;;;;;;45.59;9.38;97059.84;6298338;28;20015;-74
2023/04/29 07:17:03;;;;;;;;;;;;;;;45.08;9.29;97064.00;6298385;28;20392;-73
2023/04/29 07:20:06;;;;;;;;;;;;;;;45.39;8.97;97064.81;6298502;28;20407;-74
2023/04/29 07:23:09;;;;;;;;;;;;;;;47.69;7.72;97076.91;6298519;28;20301;-73
2023/04/29 07:26:12;;;;;;;;;;;;;;;49.72;6.90;97070.88;6298623;28;19927;-73
2023/04/29 07:29:16;;;;;;;;;;;;;;;49.61;7.36;97075.31;6298499;28;20018;-74
2023/04/29 07:32:19;;;;;;;;;;;;;;;50.73;6.47;97075.59;6298276;28;19927;-73
2023/04/29 07:35:23;;;;;;;;;;;;;;;51.72;6.20;97075.00;6297876;28;20022;-74
2023/04/29 07:38:26;;;;;;;;;;;;;;;52.17;6.03;97079.25;6297750;28;19920;-74
2023/04/29 07:41:30;;;;;;;;;;;;;;;51.52;6.46;97088.91;6298484;28;19942;-73
2023/04/29 07:44:35;;;;;;;;;;;;;;;50.90;6.77;97077.22;6279305;28;20014;-74
2023/04/29 07:47:38;;;;;;;;;;;;;;;52.75;6.29;97076.53;6297916;28;20424;-74
2023/04/29 07:50:41;;;;;;;;;;;;;;;54.18;6.16;97087.44;6297920;28;20078;-74
2023/04/29 07:53:44;;;;;;;;;;;;;;;54.97;5.31;97096.16;6297671;28;20023;-74
2023/04/29 07:56:48;;;;;;;;;;;;;;;55.34;5.41;97087.69;6297712;28;19920;-73
2023/04/29 07:59:52;;;;;;;;;;;;;;;55.83;5.19;97080.81;6297758;28;20019;-74
2023/04/29 08:02:55;;;;;;;;;;;;;;;55.81;5.37;97080.44;6279623;28;19920;-74
2023/04/29 08:06:02;;;;;;;;;;;;;;;54.76;5.43;97086.25;6297400;28;19927;-74
2023/04/29 08:09:05;;;;;;;;;;;;;;;54.52;5.94;97076.25;6297531;28;19916;-73
2023/04/29 08:12:09;;;;;;;;;;;;;;;54.86;5.68;97084.72;6297502;28;19965;-74
2023/04/29 08:15:12;;;;;;;;;;;;;;;53.75;5.83;97071.94;6279563;28;19920;-74
2023/04/29 08:18:15;;;;;;;;;;;;;;;52.42;6.03;97072.22;6297127;28;20278;-74
2023/04/29 08:21:19;;;;;;;;;;;;;;;52.06;6.23;97068.59;6297368;28;19920;-74
2023/04/29 08:24:23;;;;;;;;;;;;;;;51.91;6.29;97069.44;6297185;28;19946;-74
2023/04/29 08:27:27;;;;;;;;;;;;;;;52.25;5.46;97058.59;6297019;28;19920;-74
2023/04/29 08:30:30;;;;;;;;;;;;;;;51.91;6.17;97060.22;6278470;28;19927;-73
2023/04/29 08:33:34;;;;;;;;;;;;;;;49.49;7.04;97056.53;6279040;28;19974;-73
2023/04/29 08:36:37;;;;;;;;;;;;;;;49.16;7.17;97049.00;6296539;28;19962;-74
2023/04/29 08:39:45;;;;;;;;;;;;;;;46.88;7.72;97041.59;6296554;28;19943;-73
2023/04/29 08:42:49;;;;;;;;;;;;;;;47.12;7.96;97041.09;6278706;28;19915;-74
2023/04/29 08:45:52;;;;;;;;;;;;;;;48.39;7.15;97050.56;6296488;28;19920;-74
2023/04/29 08:48:56;;;;;;;;;;;;;;;46.79;7.66;97038.84;6296155;28;19920;-73
2023/04/29 08:52:01;;;;;;;;;;;;;;;46.00;7.74;97033.63;6278179;28;19920;-73
2023/04/29 08:55:04;;;;;;;;;;;;;;;47.03;7.60;97043.06;6295132;28;19920;-74
2023/04/29 08:58:09;;;;;;;;;;;;;;;46.87;7.42;97044.75;6296113;28;19920;-74
2023/04/29 09:01:12;;;;;;;;;;;;;;;43.84;8.47;97037.50;6296317;28;20062;-74
2023/04/29 09:04:30;;;;;;;;;;;;;;;40.18;10.55;97035.59;6296192;28;20018;-74
2023/04/29 09:07:35;;;;;;;;;;;;;;;41.24;9.95;97037.75;6277772;28;19973;-74
2023/04/29 09:10:41;;;;;;;;;;;;;;;42.19;9.18;97041.53;6296110;28;20351;-73
2023/04/29 09:13:44;;;;;;;;;;;;;;;40.77;10.15;97042.09;6295983;28;19926;-74
2023/04/29 09:16:48;;;;;;;;;;;;;;;42.20;9.12;97040.41;6295811;28;19926;-73
2023/04/29 09:19:52;;;;;;;;;;;;;;;42.74;9.19;97039.03;6295917;28;20125;-73
2023/04/29 09:23:05;;;;;;;;;;;;;;;39.55;10.60;97033.44;6277879;28;20347;-74
2023/04/29 09:26:09;;;;;;;;;;;;;;;37.24;12.18;97020.56;6295742;28;19922;-74
2023/04/29 09:29:14;;;;;;;;;;;;;;;39.69;10.78;97031.72;6295454;28;20391;-73
2023/04/29 09:32:18;;;;;;;;;;;;;;;42.68;9.11;97040.22;6295484;28;20305;-73
2023/04/29 09:35:20;;;;;;;;;;;;;;;44.57;8.12;97047.47;6277408;28;19958;-73
2023/04/29 09:38:23;;;;;;;;;;;;;;;45.91;7.57;97055.84;6295324;28;20019;-74
2023/04/29 09:41:26;;;;;;;;;;;;;;;45.10;7.92;97051.44;6277388;28;20019;-73
2023/04/29 09:44:30;;;;;;;;;;;;;;;42.80;8.96;97031.47;6277440;28;19923;-74
2023/04/29 09:47:33;;;;;;;;;;;;;;;42.85;9.15;97044.41;6295262;28;19920;-74
2023/04/29 09:50:40;;;;;;;;;;;;;;;43.21;8.86;97044.59;6294880;28;20320;-73
2023/04/29 09:53:44;;;;;;;;;;;;;;;44.54;8.37;97045.34;6294999;28;19923;-73
2023/04/29 09:56:50;;;;;;;;;;;;;;;44.43;8.23;97049.50;6277183;28;20061;-73
2023/04/29 09:59:54;;;;;;;;;;;;;;;43.39;8.91;97040.06;6294432;28;19920;-74
2023/04/29 10:02:58;;;;;;;;;;;;;;;42.67;9.37;97038.59;6294916;28;20009;-75
2023/04/29 10:06:01;;;;;;;;;;;;;;;42.99;8.90;97048.00;6294470;28;20014;-73
2023/04/29 10:09:07;;;;;;;;;;;;;;;43.41;8.52;97054.44;6295076;28;20301;-74
2023/04/29 10:12:10;;;;;;;;;;;;;;;43.76;8.36;97052.09;6276599;28;19927;-74
2023/04/29 10:15:15;;;;;;;;;;;;;;;43.53;8.86;97049.19;6294370;28;19920;-75
2023/04/29 10:18:20;;;;;;;;;;;;;;;44.27;8.36;97056.50;6294605;28;19928;-75
2023/04/29 10:21:30;;;;;;;;;;;;;;;44.53;8.37;97051.19;6276844;28;19927;-74
2023/04/29 10:24:36;;;;;;;;;;;;;;;44.01;8.18;97048.78;6260216;28;19927;-74
2023/04/29 10:27:43;;;;;;;;;;;;;;;44.00;8.59;97047.16;6294355;28;20011;-74
2023/04/29 10:30:51;;;;;;;;;;;;;;;44.01;8.45;97048.78;6293373;28;19920;-74
2023/04/29 10:33:57;;;;;;;;;;;;;;;43.72;8.37;97049.94;6294676;28;19927;-74
2023/04/29 10:37:01;;;;;;;;;;;;;;;43.50;8.27;97049.81;6276239;28;19926;-74
2023/04/29 10:40:03;;;;;;;;;;;;;;;43.53;8.24;97049.19;6294304;28;19928;-74
2023/04/29 10:43:06;;;;;;;;;;;;;;;43.24;8.94;97050.31;6294138;28;20344;-75
2023/04/29 10:46:19;;;;;;;;;;;;;;;42.79;8.92;97041.72;6294377;28;20453;-72
2023/04/29 10:49:21;;;;;;;;;;;;;;;42.62;9.00;97041.44;6259531;28;19916;-74
2023/04/29 10:52:25;;;;;;;;;;;;;;;40.96;9.71;97036.63;6294511;28;19973;-74
2023/04/29 10:55:29;;;;;;;;;;;;;;;38.83;10.58;97039.06;6294313;28;19920;-74
2023/04/29 10:58:35;;;;;;;;;;;;;;;38.34;11.23;97025.88;6293938;28;20019;-74
2023/04/29 11:01:44;;;;;;;;;;;;;;;39.14;10.66;97029.97;6294184;28;20007;-75
2023/04/29 11:05:06;;;;;;;;;;;;;;;39.07;10.64;97033.84;6276420;28;19920;-74
2023/04/29 11:08:11;;;;;;;;;;;;;;;38.90;10.93;97035.25;6294324;28;20381;-73
2023/04/29 11:11:15;;;;;;;;;;;;;;;39.15;10.58;97018.66;6294468;28;20007;-74
2023/04/29 11:14:26;;;;;;;;;;;;;;;39.22;10.57;97021.16;6293740;28;20002;-73
2023/04/29 11:17:35;;;;;;;;;;;;;;;37.65;11.63;97018.84;6276824;28;19974;-74
2023/04/29 11:20:56;;;;;;;;;;;;;;;36.20;12.40;97015.38;6280520;28;19924;-74
2023/04/29 11:24:00;;;;;;;;;;;;;;;36.70;11.81;97023.50;6280624;28;20347;-73
2023/04/29 11:27:05;;;;;;;;;;;;;;;37.45;11.74;97027.81;6280684;28;19927;-74
2023/04/29 11:30:09;;;;;;;;;;;;;;;37.95;11.03;97028.28;6280604;28;19920;-74
2023/04/29 11:33:12;;;;;;;;;;;;;;;37.38;11.34;97034.63;6298382;28;19921;-74
2023/04/29 11:36:15;;;;;;;;;;;;;;;36.56;11.56;97028.63;6279802;28;19920;-74
2023/04/29 11:39:19;;;;;;;;;;;;;;;35.96;12.39;97025.00;6297859;28;20289;-73
2023/04/29 11:42:22;;;;;;;;;;;;;;;35.41;12.75;97025.97;6297981;28;20026;-75
2023/04/29 11:45:25;;;;;;;;;;;;;;;33.76;13.68;97024.38;6280222;28;19924;-74
2023/04/29 11:48:29;;;;;;;;;;;;;;;32.29;14.77;97019.97;6298011;28;19920;-74
2023/04/29 11:51:35;;;;;;;;;;;;;;;30.95;15.73;97030.91;6279713;28;20420;-75
2023/04/29 11:54:40;;;;;;;;;;;;;;;30.35;16.05;97029.53;6297653;28;20396;-74
2023/04/29 11:57:43;;;;;;;;;;;;;;;30.47;15.91;97035.06;6297284;28;19921;-75
2023/04/29 12:00:47;;;;;;;;;;;;;;;30.01;16.27;97038.06;6263097;28;20106;-74
2023/04/29 12:03:49;;;;;;;;;;;;;;;29.78;16.92;97031.38;6279511;28;19926;-78
2023/04/29 12:06:56;;;;;;;;;;;;;;;29.37;17.27;97029.84;6280035;28;19920;-75
2023/04/29 12:10:00;;;;;;;;;;;;;;;29.25;17.48;97037.00;6262633;28;19920;-74
2023/04/29 12:13:04;;;;;;;;;;;;;;;29.13;17.39;97038.69;6279179;28;19920;-74
2023/04/29 12:16:06;;;;;;;;;;;;;;;29.14;17.61;97040.34;6279168;28;19927;-75
2023/04/29 12:19:10;;;;;;;;;;;;;;;29.17;17.62;97034.50;6262295;28;19920;-75
2023/04/29 12:22:13;;;;;;;;;;;;;;;29.11;17.94;97029.94;6279224;28;19920;-76
2023/04/29 12:25:23;;;;;;;;;;;;;;;28.83;18.07;97031.84;6279508;28;19946;-75
2023/04/29 12:28:27;;;;;;;;;;;;;;;28.50;17.96;97033.75;6296715;28;19920;-74
2023/04/29 12:31:35;;;;;;;;;;;;;;;28.81;17.60;97030.38;6278663;28;20351;-74
2023/04/29 12:34:39;;;;;;;;;;;;;;;28.92;17.56;97037.88;6294107;28;20025;-75
2023/04/29 12:37:43;;;;;;;;;;;;;;;28.86;17.51;97033.31;6279066;28;19927;-74
2023/04/29 12:40:47;;;;;;;;;;;;;;;28.63;17.75;97039.16;6296441;28;20375;-74
2023/04/29 12:43:50;;;;;;;;;;;;;;;28.48;17.94;97031.28;6296427;28;20378;-74
2023/04/29 12:46:54;;;;;;;;;;;;;;;28.43;17.91;97034.59;6296562;28;20397;-75
2023/04/29 12:49:58;;;;;;;;;;;;;;;28.44;17.87;97030.00;6296140;28;19941;-75
2023/04/29 12:53:03;;;;;;;;;;;;;;;28.36;17.99;97028.31;6296313;28;19926;-74
2023/04/29 12:56:07;;;;;;;;;;;;;;;28.43;17.84;97028.34;6296104;28;19924;-74
2023/04/29 12:59:10;;;;;;;;;;;;;;;28.58;17.66;97023.53;6278316;28;19920;-75
2023/04/29 13:02:13;;;;;;;;;;;;;;;27.76;18.56;97022.81;6278136;28;20370;-74
2023/04/29 13:05:17;;;;;;;;;;;;;;;27.09;19.08;97021.72;6295586;28;19923;-74
2023/04/29 13:08:20;;;;;;;;;;;;;;;26.71;18.96;97023.97;6296153;28;19931;-75
2023/04/29 13:11:24;;;;;;;;;;;;;;;26.54;19.44;97019.91;6278053;28;19920;-74
2023/04/29 13:14:27;;;;;;;;;;;;;;;26.14;19.55;97017.69;6295679;28;20265;-75
2023/04/29 13:17:31;;;;;;;;;;;;;;;25.97;20.03;97017.13;6277651;28;19924;-74
2023/04/29 13:20:35;;;;;;;;;;;;;;;25.55;21.01;97012.53;6295765;28;20018;-74
2023/04/29 13:23:38;;;;;;;;;;;;;;;24.96;21.36;97012.59;6295488;28;19920;-74
2023/04/29 13:26:41;;;;;;;;;;;;;;;24.44;21.57;97018.88;6294978;28;19981;-75
2023/04/29 13:29:45;;;;;;;;;;;;;;;24.29;21.59;97013.44;6295479;28;20026;-75
2023/04/29 13:32:48;;;;;;;;;;;;;;;24.25;21.65;97014.81;6261489;28;19920;-74
2023/04/29 13:35:51;;;;;;;;;;;;;;;24.24;21.77;97010.47;6277631;28;20014;-74
2023/04/29 13:38:55;;;;;;;;;;;;;;;24.16;21.49;97020.28;6295624;28;20043;-74
2023/04/29 13:41:58;;;;;;;;;;;;;;;24.12;21.41;97016.28;6294592;28;20378;-73
2023/04/29 13:45:02;;;;;;;;;;;;;;;24.03;21.63;97020.03;6295334;28;20445;-75
2023/04/29 13:48:07;;;;;;;;;;;;;;;24.14;22.15;97014.22;6294997;28;19920;-75
2023/04/29 13:51:11;;;;;;;;;;;;;;;23.79;22.58;97025.63;6276719;28;19927;-75
2023/04/29 13:54:15;;;;;;;;;;;;;;;23.60;22.59;97016.13;6276385;28;20022;-74
2023/04/29 13:57:18;;;;;;;;;;;;;;;23.47;22.85;97019.41;6277027;28;20386;-74
2023/04/29 14:00:21;;;;;;;;;;;;;;;23.24;22.82;97017.53;6294763;28;20353;-74
2023/04/29 14:03:26;;;;;;;;;;;;;;;23.16;22.88;97025.59;6294311;28;20085;-75
2023/04/29 14:06:31;;;;;;;;;;;;;;;23.05;22.59;97023.31;6294769;28;20023;-75
2023/04/29 14:09:33;;;;;;;;;;;;;;;22.92;23.24;97022.97;6294555;28;20369;-74
2023/04/29 14:12:36;;;;;;;;;;;;;;;22.79;23.00;97018.19;6294811;28;20025;-75
2023/04/29 14:15:38;;;;;;;;;;;;;;;22.65;23.03;97011.69;6294112;28;19927;-74
2023/04/29 14:18:42;;;;;;;;;;;;;;;22.69;23.89;97015.69;6294396;28;19932;-76
2023/04/29 14:21:45;;;;;;;;;;;;;;;22.22;23.75;97016.41;6276100;28;20018;-75
2023/04/29 14:24:50;;;;;;;;;;;;;;;22.00;24.24;97009.06;6294269;28;20297;-74
2023/04/29 14:27:53;;;;;;;;;;;;;;;21.85;24.16;97016.91;6276550;28;19955;-75
2023/04/29 14:30:58;;;;;;;;;;;;;;;21.65;24.42;97013.69;6294248;28;19920;-74
2023/04/29 14:34:02;;;;;;;;;;;;;;;21.52;24.62;97015.03;6294281;28;19926;-75
2023/04/29 14:37:06;;;;;;;;;;;;;;;21.32;25.25;97021.66;6275612;28;20011;-74
2023/04/29 14:40:09;;;;;;;;;;;;;;;21.30;26.01;97020.97;6293956;28;19920;-75
2023/04/29 14:43:11;;;;;;;;;;;;;;;21.02;25.80;97023.88;6276147;28;20011;-75
2023/04/29 14:46:15;;;;;;;;;;;;;;;20.82;25.53;97023.28;6276528;28;20014;-75
2023/04/29 14:49:18;;;;;;;;;;;;;;;20.66;25.60;97022.38;6294305;28;19920;-75
2023/04/29 14:52:22;;;;;;;;;;;;;;;20.51;25.77;97019.41;6278442;28;19921;-76
2023/04/29 14:55:25;;;;;;;;;;;;;;;20.32;26.09;97026.63;6299001;28;20301;-75
2023/04/29 14:58:29;;;;;;;;;;;;;;;20.15;25.87;97020.34;6298989;28;20389;-74
2023/04/29 15:01:33;;;;;;;;;;;;;;;20.04;26.96;97033.97;6298832;28;19920;-74
2023/04/29 15:04:37;;;;;;;;;;;;;;;19.84;26.99;97030.59;6298689;28;19926;-74
2023/04/29 15:07:41;;;;;;;;;;;;;;;19.67;26.93;97032.31;6298865;28;19942;-74
2023/04/29 15:10:46;;;;;;;;;;;;;;;19.49;26.72;97034.09;6298847;28;20399;-75
2023/04/29 15:13:49;;;;;;;;;;;;;;;19.34;27.09;97040.94;6263501;28;19931;-74
2023/04/29 15:16:51;;;;;;;;;;;;;;;19.28;28.16;97037.88;6263466;28;19921;-75
2023/04/29 15:19:54;;;;;;;;;;;;;;;19.03;27.81;97042.09;6298725;28;19920;-74
2023/04/29 15:22:58;;;;;;;;;;;;;;;18.90;28.21;97041.56;6298550;28;19927;-74
2023/04/29 15:26:01;;;;;;;;;;;;;;;18.77;29.25;97043.75;6298032;28;19943;-75
2023/04/29 15:29:04;;;;;;;;;;;;;;;18.67;29.08;97046.41;6280666;28;19927;-77
2023/04/29 15:32:06;;;;;;;;;;;;;;;18.58;29.09;97045.47;6298452;28;20254;-75
2023/04/29 15:35:08;;;;;;;;;;;;;;;18.44;28.90;97055.75;6298277;28;20058;-73
2023/04/29 15:38:11;;;;;;;;;;;;;;;18.44;30.04;97055.75;6298221;28;19920;-75
2023/04/29 15:41:13;;;;;;;;;;;;;;;18.25;29.41;97060.13;6298144;28;19922;-74
2023/04/29 15:44:17;;;;;;;;;;;;;;;18.09;29.50;97059.88;6298250;28;20026;-75
2023/04/29 15:47:21;;;;;;;;;;;;;;;17.94;29.81;97062.09;6297953;28;19920;-75
2023/04/29 15:50:23;;;;;;;;;;;;;;;17.94;30.60;97070.09;6280073;28;19920;-74
2023/04/29 15:53:27;;;;;;;;;;;;;;;17.80;31.18;97071.34;6297798;28;20008;-75
2023/04/29 15:56:31;;;;;;;;;;;;;;;17.73;30.77;97070.22;6279656;28;20314;-76
2023/04/29 15:59:34;;;;;;;;;;;;;;;17.58;30.75;97067.13;6297391;28;20457;-74
2023/04/29 16:02:37;;;;;;;;;;;;;;;17.42;30.75;97067.66;6297312;28;19920;-75